Time;durP1;ratioP1;P1;durP2;ratioP2;P2;SDS_P1;SDS_P2;PMS_P1;PMS_P2;Temp;Humidity;BMP_temperature;BMP_pressure;BME280_temperature;BME280_humidity;BME280_pressure;Samples;Min_cycle;Max_cycle;Signal;HPM_P1;HPM_P2
2021/07/06 00:01:57;;;;;;;2.20;2.10;;;19.60;81.80;;;;;;5022225;28;20240;-89
2021/07/06 00:04:23;;;;;;;2.20;2.10;;;19.70;81.70;;;;;;5022329;28;20187;-88
2021/07/06 00:06:49;;;;;;;3.22;2.38;;;19.90;81.20;;;;;;5021914;28;20185;-90
2021/07/06 00:09:15;;;;;;;3.72;2.50;;;19.90;80.20;;;;;;5022104;28;20184;-89
2021/07/06 00:11:41;;;;;;;2.50;2.30;;;20.00;80.10;;;;;;5021753;28;20313;-89
2021/07/06 00:14:07;;;;;;;2.65;2.45;;;20.00;80.30;;;;;;5021591;28;20603;-89
2021/07/06 00:16:33;;;;;;;2.60;2.10;;;20.00;79.80;;;;;;5021958;28;20228;-89
2021/07/06 00:18:59;;;;;;;2.17;2.03;;;20.10;79.50;;;;;;5022062;28;20671;-90
2021/07/06 00:21:25;;;;;;;2.95;2.10;;;20.10;79.20;;;;;;5016786;28;20193;-90
2021/07/06 00:23:51;;;;;;;3.03;2.58;;;20.20;79.00;;;;;;5002744;28;20188;-89
2021/07/06 00:26:18;;;;;;;2.35;2.20;;;20.10;78.90;;;;;;5002382;28;20181;-89
2021/07/06 00:28:44;;;;;;;3.63;2.35;;;20.00;79.00;;;;;;4984620;28;20217;-89
2021/07/06 00:31:10;;;;;;;3.83;2.38;;;19.90;79.60;;;;;;5001949;28;20214;-89
2021/07/06 00:33:36;;;;;;;2.35;2.20;;;19.80;80.00;;;;;;5001855;28;20176;-89
2021/07/06 00:36:02;;;;;;;4.88;2.22;;;19.80;80.20;;;;;;4984698;28;20179;-89
2021/07/06 00:38:29;;;;;;;2.30;2.20;;;19.70;80.20;;;;;;5006714;28;20178;-89
2021/07/06 00:40:59;;;;;;;3.70;2.22;;;19.70;80.20;;;;;;5021807;28;20225;-89
2021/07/06 00:43:25;;;;;;;3.05;2.50;;;19.70;80.40;;;;;;5008140;28;20178;-89
2021/07/06 00:45:55;;;;;;;2.38;2.10;;;19.70;79.90;;;;;;5032071;28;20189;-89
2021/07/06 00:48:21;;;;;;;3.10;2.80;;;19.70;80.00;;;;;;5021005;28;20587;-89
2021/07/06 00:50:47;;;;;;;2.50;2.30;;;19.70;80.10;;;;;;5021000;28;20221;-89
2021/07/06 00:53:12;;;;;;;2.88;2.40;;;19.70;80.40;;;;;;5014710;28;20213;-88
2021/07/06 00:55:38;;;;;;;4.38;2.67;;;19.80;80.00;;;;;;5034045;28;20188;-89
2021/07/06 00:58:04;;;;;;;4.28;2.40;;;19.70;79.70;;;;;;5021759;28;20193;-90
2021/07/06 01:00:30;;;;;;;3.20;2.53;;;19.70;79.80;;;;;;5020392;28;20217;-90
2021/07/06 01:02:55;;;;;;;2.40;2.20;;;19.70;79.90;;;;;;5020407;28;20187;-89
2021/07/06 01:05:24;;;;;;;5.15;2.40;;;19.60;79.60;;;;;;5005572;28;20185;-89
2021/07/06 01:07:51;;;;;;;3.15;2.25;;;19.50;80.10;;;;;;5030045;28;20178;-88
2021/07/06 01:10:17;;;;;;;4.05;2.80;;;19.60;80.70;;;;;;5017710;28;20209;-89
2021/07/06 01:12:44;;;;;;;3.67;2.40;;;19.50;80.60;;;;;;4999626;28;20193;-89
2021/07/06 01:15:13;;;;;;;3.42;2.40;;;19.50;80.50;;;;;;5016644;28;20179;-88
2021/07/06 01:17:40;;;;;;;3.17;2.17;;;19.50;79.90;;;;;;5016029;28;20732;-88
2021/07/06 01:20:13;;;;;;;3.85;2.65;;;19.50;80.50;;;;;;5001424;28;20190;-89
2021/07/06 01:22:38;;;;;;;2.30;2.17;;;19.40;80.20;;;;;;5001386;28;20186;-89
2021/07/06 01:25:07;;;;;;;3.28;2.30;;;19.50;80.40;;;;;;5000744;28;20234;-89
2021/07/06 01:27:34;;;;;;;4.28;2.47;;;19.50;80.30;;;;;;4979065;28;20262;-88
2021/07/06 01:30:00;;;;;;;2.40;2.20;;;19.60;80.10;;;;;;5016944;28;20205;-88
2021/07/06 01:32:26;;;;;;;3.35;2.47;;;19.60;79.70;;;;;;5011384;28;20185;-88
2021/07/06 01:34:52;;;;;;;5.03;2.58;;;19.30;80.40;;;;;;5036805;28;20181;-88
2021/07/06 01:37:19;;;;;;;2.85;2.33;;;19.40;79.50;;;;;;5022571;28;20201;-88
2021/07/06 01:39:47;;;;;;;2.45;2.10;;;19.30;80.40;;;;;;5017141;28;20206;-88
2021/07/06 01:42:21;;;;;;;2.58;2.25;;;19.40;80.20;;;;;;5012971;28;20178;-88
2021/07/06 01:45:01;;;;;;;5.18;2.50;;;19.50;80.10;;;;;;5003410;28;20166;-89
2021/07/06 01:47:27;;;;;;;3.08;2.05;;;19.50;80.10;;;;;;4983920;28;20178;-89
2021/07/06 01:49:53;;;;;;;3.45;2.35;;;19.40;80.10;;;;;;5000368;28;20214;-89
2021/07/06 01:52:18;;;;;;;3.60;2.22;;;19.30;79.90;;;;;;4999873;28;20281;-89
2021/07/06 01:54:44;;;;;;;3.15;2.40;;;19.30;80.10;;;;;;5000170;28;20179;-89
2021/07/06 01:57:13;;;;;;;4.72;3.00;;;19.40;80.10;;;;;;5006276;28;20217;-89
2021/07/06 01:59:39;;;;;;;5.20;2.35;;;19.30;79.20;;;;;;5012020;28;20230;-89
2021/07/06 02:02:04;;;;;;;2.42;2.33;;;19.20;80.00;;;;;;5001035;28;20186;-89
2021/07/06 02:04:30;;;;;;;2.85;2.38;;;19.20;80.30;;;;;;4984436;28;20178;-89
2021/07/06 02:06:56;;;;;;;2.40;2.20;;;19.30;80.00;;;;;;5011728;28;20189;-89
2021/07/06 02:09:21;;;;;;;3.05;2.30;;;19.40;79.80;;;;;;5021325;28;20218;-89
2021/07/06 02:11:47;;;;;;;3.45;2.70;;;19.30;79.00;;;;;;5003911;28;20693;-90
2021/07/06 02:14:15;;;;;;;4.30;2.30;;;19.10;80.10;;;;;;5004229;28;20192;-89
2021/07/06 02:16:41;;;;;;;3.17;2.60;;;19.10;80.60;;;;;;5012805;28;20545;-88
2021/07/06 02:19:06;;;;;;;2.97;2.38;;;19.00;81.00;;;;;;5001453;28;20182;-89
2021/07/06 02:21:32;;;;;;;2.63;2.42;;;18.90;82.10;;;;;;5002083;28;20189;-89
2021/07/06 02:23:58;;;;;;;2.80;2.60;;;18.90;82.60;;;;;;5001014;28;20193;-89
2021/07/06 02:26:23;;;;;;;4.72;2.55;;;18.90;82.80;;;;;;4989103;28;20260;-89
2021/07/06 02:28:49;;;;;;;3.03;2.50;;;19.00;81.50;;;;;;5003816;28;20200;-89
2021/07/06 02:31:15;;;;;;;2.97;2.70;;;19.00;81.70;;;;;;5020598;28;20197;-89
2021/07/06 02:33:41;;;;;;;3.08;2.78;;;19.00;81.60;;;;;;5020849;28;20176;-89
2021/07/06 02:36:08;;;;;;;2.72;2.47;;;19.00;81.50;;;;;;5017398;28;20198;-89
2021/07/06 02:38:35;;;;;;;2.45;2.30;;;19.00;81.00;;;;;;5001478;28;20190;-89
2021/07/06 02:41:02;;;;;;;3.28;2.20;;;19.00;81.60;;;;;;4991917;28;20216;-88
2021/07/06 02:43:27;;;;;;;2.45;2.25;;;19.00;81.20;;;;;;5017045;28;20250;-86
2021/07/06 02:45:53;;;;;;;4.57;2.53;;;19.10;80.90;;;;;;5016942;28;20194;-88
2021/07/06 02:48:19;;;;;;;2.65;2.45;;;19.00;80.60;;;;;;5003531;28;20257;-89
2021/07/06 02:50:44;;;;;;;3.45;2.58;;;19.10;80.90;;;;;;5002305;28;20217;-88
2021/07/06 02:53:11;;;;;;;2.85;2.53;;;19.10;80.80;;;;;;5001474;28;20174;-89
2021/07/06 02:55:38;;;;;;;2.50;2.30;;;19.10;81.00;;;;;;5000533;28;20309;-88
2021/07/06 02:58:04;;;;;;;2.58;2.38;;;19.10;80.70;;;;;;4997692;28;20190;-89
2021/07/06 03:00:32;;;;;;;5.63;2.60;;;19.10;80.80;;;;;;4998132;28;20205;-89
2021/07/06 03:03:08;;;;;;;2.40;2.20;;;19.00;80.70;;;;;;5004730;28;20208;-89
2021/07/06 03:05:35;;;;;;;2.70;2.45;;;19.00;81.70;;;;;;5007734;28;20181;-89
2021/07/06 03:08:03;;;;;;;4.88;2.67;;;19.10;80.60;;;;;;5007044;28;20248;-89
2021/07/06 03:10:32;;;;;;;2.47;2.25;;;19.10;80.40;;;;;;5024018;28;20703;-89
2021/07/06 03:12:59;;;;;;;4.10;2.80;;;19.00;80.40;;;;;;5024987;28;20177;-90
2021/07/06 03:15:26;;;;;;;2.50;2.22;;;18.90;80.60;;;;;;5007225;28;20260;-88
2021/07/06 03:17:53;;;;;;;3.15;2.45;;;18.90;81.80;;;;;;5024478;28;20181;-89
2021/07/06 03:20:21;;;;;;;3.38;2.42;;;19.00;80.90;;;;;;5024555;28;20292;-89
2021/07/06 03:22:47;;;;;;;3.17;2.75;;;18.90;81.10;;;;;;5024778;28;20189;-89
2021/07/06 03:25:16;;;;;;;3.97;2.60;;;18.90;81.10;;;;;;5023998;28;20256;-89
2021/07/06 03:27:42;;;;;;;3.78;2.33;;;18.80;81.40;;;;;;4992068;28;20197;-90
2021/07/06 03:30:12;;;;;;;4.00;2.60;;;18.70;81.90;;;;;;4986855;28;20215;-89
2021/07/06 03:32:38;;;;;;;2.42;2.25;;;18.50;83.20;;;;;;4987335;28;20192;-89
2021/07/06 03:35:05;;;;;;;3.13;2.70;;;18.40;84.00;;;;;;5007487;28;20257;-89
2021/07/06 03:37:31;;;;;;;3.55;2.63;;;18.50;83.80;;;;;;5005393;28;20194;-89
2021/07/06 03:39:57;;;;;;;4.18;2.40;;;18.50;83.80;;;;;;4987269;28;20201;-89
2021/07/06 03:42:22;;;;;;;4.43;2.40;;;18.60;83.10;;;;;;4987074;28;20632;-89
2021/07/06 03:44:48;;;;;;;2.85;2.40;;;18.50;83.10;;;;;;5005364;28;20178;-89
2021/07/06 03:47:14;;;;;;;4.63;2.53;;;18.50;83.40;;;;;;5014365;28;20182;-89
2021/07/06 03:49:39;;;;;;;2.50;2.30;;;18.50;83.50;;;;;;5022697;28;20290;-89
2021/07/06 03:52:05;;;;;;;3.17;2.40;;;18.50;83.10;;;;;;5023198;28;20225;-89
2021/07/06 03:54:31;;;;;;;2.40;2.20;;;18.40;83.30;;;;;;5023659;28;20183;-89
2021/07/06 03:56:58;;;;;;;2.55;2.35;;;18.50;83.50;;;;;;5001290;28;20182;-89
2021/07/06 03:59:24;;;;;;;2.40;2.10;;;18.60;82.80;;;;;;4990215;28;20209;-90
2021/07/06 04:01:50;;;;;;;3.63;3.08;;;18.50;82.70;;;;;;5004466;28;20194;-90
2021/07/06 04:04:16;;;;;;;2.55;2.35;;;18.60;82.30;;;;;;5004270;28;20187;-89
2021/07/06 04:06:41;;;;;;;3.47;2.70;;;18.60;82.70;;;;;;5004081;28;20212;-90
2021/07/06 04:09:07;;;;;;;3.65;2.55;;;18.50;82.60;;;;;;4992923;28;20213;-89
2021/07/06 04:11:33;;;;;;;3.78;2.58;;;18.30;83.50;;;;;;5022818;28;20290;-89
2021/07/06 04:13:58;;;;;;;2.50;2.30;;;18.30;84.40;;;;;;5023168;28;20257;-89
2021/07/06 04:16:24;;;;;;;2.35;2.22;;;18.30;84.70;;;;;;5016753;28;20181;-90
2021/07/06 04:18:50;;;;;;;3.42;2.40;;;18.40;84.10;;;;;;5005330;28;20266;-90
2021/07/06 04:21:16;;;;;;;5.15;2.67;;;18.40;83.90;;;;;;5020102;28;20220;-89
2021/07/06 04:23:42;;;;;;;3.67;2.58;;;18.40;84.00;;;;;;5020393;28;20194;-90
2021/07/06 04:26:07;;;;;;;2.75;2.25;;;18.50;84.00;;;;;;5004476;28;20189;-90
2021/07/06 04:28:34;;;;;;;3.20;2.40;;;18.60;84.00;;;;;;5002661;28;20189;-90
2021/07/06 04:31:00;;;;;;;8.85;2.90;;;18.50;83.70;;;;;;5020634;28;20684;-89
2021/07/06 04:33:26;;;;;;;5.55;2.72;;;18.60;84.00;;;;;;5021975;28;20181;-89
2021/07/06 04:35:52;;;;;;;4.95;2.80;;;18.60;84.30;;;;;;5021896;28;20668;-89
2021/07/06 04:38:18;;;;;;;6.85;2.60;;;18.70;84.50;;;;;;5020753;28;20618;-89
2021/07/06 04:40:44;;;;;;;3.70;2.75;;;18.70;84.70;;;;;;5021225;28;20232;-89
2021/07/06 04:43:10;;;;;;;4.82;2.80;;;18.70;85.40;;;;;;5014998;28;20185;-89
2021/07/06 04:45:36;;;;;;;2.95;2.67;;;18.70;85.70;;;;;;4989044;28;20550;-89
2021/07/06 04:48:03;;;;;;;6.60;2.60;;;18.80;85.80;;;;;;5022309;28;20193;-90
2021/07/06 04:50:31;;;;;;;3.65;3.08;;;18.90;86.00;;;;;;5021463;28;20683;-90
2021/07/06 04:52:57;;;;;;;5.15;3.00;;;18.90;86.20;;;;;;5003840;28;20234;-90
2021/07/06 04:55:23;;;;;;;3.47;2.90;;;19.00;86.00;;;;;;5021867;28;20193;-89
2021/07/06 04:57:48;;;;;;;4.15;3.00;;;19.00;86.30;;;;;;5021586;28;20189;-89
2021/07/06 05:00:18;;;;;;;4.18;2.80;;;19.00;86.00;;;;;;5021322;28;20201;-89
2021/07/06 05:02:45;;;;;;;5.57;3.20;;;19.00;86.70;;;;;;5015958;28;20178;-89
2021/07/06 05:05:11;;;;;;;3.33;2.90;;;19.00;86.30;;;;;;5001361;28;20181;-89
2021/07/06 05:07:37;;;;;;;3.80;2.70;;;19.20;86.10;;;;;;5002812;28;20265;-89
2021/07/06 05:10:05;;;;;;;3.28;2.97;;;19.20;85.80;;;;;;5001522;28;20685;-90
2021/07/06 05:12:31;;;;;;;3.78;2.88;;;19.20;85.90;;;;;;4999907;28;20183;-90
2021/07/06 05:14:57;;;;;;;4.43;3.28;;;19.30;86.30;;;;;;4981623;28;20178;-89
2021/07/06 05:17:22;;;;;;;4.45;3.10;;;19.40;86.00;;;;;;4998681;28;20286;-89
2021/07/06 05:19:48;;;;;;;5.05;3.08;;;19.40;85.80;;;;;;4997216;28;20225;-89
2021/07/06 05:22:14;;;;;;;5.28;3.42;;;19.40;85.50;;;;;;4998719;28;20182;-90
2021/07/06 05:24:40;;;;;;;2.90;2.67;;;19.40;86.60;;;;;;5000060;28;20592;-89
2021/07/06 05:27:05;;;;;;;4.15;2.75;;;19.40;86.70;;;;;;5017351;28;20213;-90
2021/07/06 05:29:31;;;;;;;3.33;2.90;;;19.40;86.80;;;;;;4999876;28;20369;-89
2021/07/06 05:31:57;;;;;;;3.72;2.92;;;19.50;86.40;;;;;;5019233;28;20202;-89
2021/07/06 05:34:23;;;;;;;3.03;2.70;;;19.50;86.90;;;;;;4997720;28;20197;-88
2021/07/06 05:36:49;;;;;;;5.57;2.88;;;19.50;86.90;;;;;;4998936;28;20257;-87
2021/07/06 05:39:15;;;;;;;4.40;3.00;;;19.40;87.30;;;;;;4999129;28;20174;-89
2021/07/06 05:41:41;;;;;;;3.58;2.92;;;19.40;87.90;;;;;;4998161;28;20240;-88
2021/07/06 05:44:11;;;;;;;4.50;3.65;;;19.40;87.70;;;;;;5002983;28;20190;-88
2021/07/06 05:46:37;;;;;;;5.35;3.30;;;19.50;87.40;;;;;;4998150;28;20217;-88
2021/07/06 05:49:02;;;;;;;4.38;3.08;;;19.40;89.70;;;;;;4970203;28;20190;-87
2021/07/06 05:51:28;;;;;;;6.85;4.03;;;19.30;89.50;;;;;;5002185;28;20236;-88
2021/07/06 05:53:54;;;;;;;6.72;3.50;;;19.30;89.00;;;;;;4972132;28;20231;-88
2021/07/06 05:56:20;;;;;;;5.93;3.58;;;19.30;88.50;;;;;;4991327;28;20217;-88
2021/07/06 05:58:46;;;;;;;3.30;3.00;;;19.10;87.80;;;;;;5015997;28;20217;-89
2021/07/06 06:01:12;;;;;;;3.55;3.25;;;19.10;88.70;;;;;;5007414;28;20290;-89
2021/07/06 06:03:38;;;;;;;4.45;3.25;;;19.20;88.80;;;;;;5008290;28;20605;-88
2021/07/06 06:06:04;;;;;;;3.42;3.13;;;19.30;88.10;;;;;;5013646;28;20194;-89
2021/07/06 06:08:30;;;;;;;4.32;3.40;;;19.50;87.00;;;;;;5002725;28;20258;-89
2021/07/06 06:10:56;;;;;;;4.78;3.58;;;19.60;86.40;;;;;;4997308;28;20217;-89
2021/07/06 06:13:21;;;;;;;6.18;3.22;;;19.50;85.60;;;;;;5009582;28;20269;-88
2021/07/06 06:15:47;;;;;;;5.80;3.60;;;19.40;86.90;;;;;;5009523;28;20281;-89
2021/07/06 06:18:13;;;;;;;5.45;3.38;;;19.40;87.90;;;;;;4998291;28;20208;-88
2021/07/06 06:20:39;;;;;;;3.65;3.30;;;19.60;87.80;;;;;;4998137;28;20787;-88
2021/07/06 06:23:05;;;;;;;3.63;3.15;;;19.80;86.60;;;;;;5004787;28;20205;-88
2021/07/06 06:25:31;;;;;;;3.35;3.05;;;19.80;85.80;;;;;;5011628;28;20193;-89
2021/07/06 06:27:57;;;;;;;4.93;3.25;;;20.00;86.50;;;;;;4996035;28;20193;-89
2021/07/06 06:30:23;;;;;;;4.88;3.10;;;20.10;85.40;;;;;;5003976;28;20290;-89
2021/07/06 06:32:51;;;;;;;4.25;2.80;;;20.40;84.10;;;;;;5004632;28;20202;-89
2021/07/06 06:35:17;;;;;;;4.65;2.92;;;20.50;83.20;;;;;;5004461;28;20241;-89
2021/07/06 06:37:42;;;;;;;3.80;2.95;;;20.70;83.30;;;;;;5003206;28;20194;-89
2021/07/06 06:40:09;;;;;;;3.08;2.88;;;20.90;81.70;;;;;;5010315;28;20221;-89
2021/07/06 06:42:35;;;;;;;3.22;2.92;;;21.00;81.00;;;;;;5003630;28;20573;-89
2021/07/06 06:45:03;;;;;;;3.30;2.88;;;21.20;80.40;;;;;;5016305;28;20198;-89
2021/07/06 06:47:28;;;;;;;4.32;3.30;;;21.20;80.50;;;;;;4996901;28;20195;-89
2021/07/06 06:49:54;;;;;;;3.67;2.85;;;21.10;80.80;;;;;;5008929;28;20212;-90
2021/07/06 06:52:22;;;;;;;4.00;3.00;;;21.00;81.60;;;;;;5001476;28;20218;-89
2021/07/06 06:54:47;;;;;;;5.18;3.78;;;21.00;82.10;;;;;;5011180;28;20177;-89
2021/07/06 06:57:13;;;;;;;4.07;3.28;;;21.10;82.10;;;;;;5002626;28;20270;-89
2021/07/06 06:59:39;;;;;;;4.05;3.35;;;21.30;81.30;;;;;;5003176;28;20206;-89
2021/07/06 07:02:20;;;;;;;7.82;3.53;;;21.30;80.90;;;;;;4988174;28;20197;-90
2021/07/06 07:04:51;;;;;;;5.47;3.45;;;21.20;81.90;;;;;;5011721;28;20171;-89
2021/07/06 07:07:18;;;;;;;5.22;3.35;;;21.40;80.40;;;;;;5012138;28;20545;-89
2021/07/06 07:09:44;;;;;;;3.65;3.35;;;21.60;80.20;;;;;;5011714;28;20216;-90
2021/07/06 07:12:11;;;;;;;3.45;3.25;;;21.80;80.30;;;;;;5012287;28;20262;-89
2021/07/06 07:14:37;;;;;;;6.50;3.55;;;21.70;79.70;;;;;;5003087;28;20254;-86
2021/07/06 07:17:04;;;;;;;3.65;3.17;;;21.70;79.70;;;;;;5011396;28;20184;-87
2021/07/06 07:19:30;;;;;;;4.63;3.40;;;21.80;79.30;;;;;;5009384;28;20210;-90
2021/07/06 07:21:56;;;;;;;3.53;3.17;;;21.70;80.50;;;;;;5010742;28;20189;-89
2021/07/06 07:24:22;;;;;;;4.00;3.20;;;21.50;81.00;;;;;;5012243;28;20183;-89
2021/07/06 07:26:48;;;;;;;4.65;3.20;;;21.50;81.90;;;;;;5011257;28;20325;-89
2021/07/06 07:29:14;;;;;;;4.40;3.10;;;21.50;84.30;;;;;;4998254;28;20195;-90
2021/07/06 07:31:39;;;;;;;3.63;3.25;;;21.80;82.30;;;;;;4992508;28;20275;-90
2021/07/06 07:34:05;;;;;;;3.00;2.75;;;21.80;80.90;;;;;;5012944;28;20209;-90
2021/07/06 07:36:31;;;;;;;3.60;3.30;;;21.90;82.20;;;;;;5013952;28;20198;-89
2021/07/06 07:38:57;;;;;;;5.07;3.05;;;22.00;81.50;;;;;;5014259;28;20707;-90
2021/07/06 07:41:23;;;;;;;3.47;3.10;;;22.10;80.70;;;;;;5014091;28;20208;-90
2021/07/06 07:43:53;;;;;;;4.10;3.40;;;22.10;80.70;;;;;;5009964;28;20224;-89
2021/07/06 07:46:19;;;;;;;4.25;3.20;;;22.20;80.10;;;;;;4988767;28;20224;-90
2021/07/06 07:48:46;;;;;;;3.33;3.05;;;22.30;80.00;;;;;;4997217;28;20198;-89
2021/07/06 07:51:11;;;;;;;3.60;3.30;;;22.40;78.50;;;;;;4997407;28;20859;-90
2021/07/06 07:53:37;;;;;;;4.72;3.05;;;22.40;77.30;;;;;;4994838;28;20188;-90
2021/07/06 07:56:03;;;;;;;3.33;2.90;;;22.40;77.30;;;;;;4975287;28;20189;-88
2021/07/06 07:58:29;;;;;;;3.78;3.20;;;22.30;79.90;;;;;;4985889;28;20205;-89
2021/07/06 08:00:54;;;;;;;4.35;3.20;;;22.20;79.80;;;;;;4970122;28;20212;-89
2021/07/06 08:03:20;;;;;;;3.47;3.03;;;22.00;80.80;;;;;;4978911;28;20197;-89
2021/07/06 08:05:46;;;;;;;4.10;3.47;;;21.90;80.30;;;;;;4998951;28;20723;-89
2021/07/06 08:08:11;;;;;;;3.47;3.17;;;22.10;79.90;;;;;;4996500;28;20222;-89
2021/07/06 08:10:37;;;;;;;4.57;3.25;;;22.10;80.10;;;;;;4997684;28;20222;-89
2021/07/06 08:13:03;;;;;;;4.47;3.53;;;22.10;79.90;;;;;;5003088;28;20210;-89
2021/07/06 08:15:29;;;;;;;3.70;3.40;;;21.90;80.20;;;;;;5000775;28;20731;-89
2021/07/06 08:17:54;;;;;;;3.97;3.60;;;21.80;81.30;;;;;;5001484;28;20713;-89
2021/07/06 08:20:20;;;;;;;6.65;3.42;;;21.70;81.90;;;;;;4996718;28;20588;-89
2021/07/06 08:22:46;;;;;;;4.28;3.65;;;21.50;82.30;;;;;;4983922;28;20186;-89
2021/07/06 08:25:12;;;;;;;3.78;3.47;;;21.40;82.90;;;;;;4997360;28;20273;-89
2021/07/06 08:27:38;;;;;;;5.32;3.40;;;21.30;83.70;;;;;;4999947;28;20194;-89
2021/07/06 08:30:05;;;;;;;4.55;3.40;;;21.30;83.30;;;;;;4988746;28;20273;-89
2021/07/06 08:32:31;;;;;;;4.15;3.20;;;21.10;85.70;;;;;;4995826;28;20186;-88
2021/07/06 08:34:56;;;;;;;6.03;3.58;;;21.00;87.50;;;;;;5002330;28;20252;-90
2021/07/06 08:37:22;;;;;;;6.88;3.58;;;20.70;90.60;;;;;;4982640;28;20189;-89
2021/07/06 08:39:48;;;;;;;5.10;3.90;;;20.60;93.20;;;;;;4988800;28;20228;-90
2021/07/06 08:42:13;;;;;;;4.57;3.88;;;20.20;95.10;;;;;;4999198;28;20193;-89
2021/07/06 08:44:39;;;;;;;4.10;3.55;;;20.10;97.60;;;;;;5006968;28;20193;-90
2021/07/06 08:47:07;;;;;;;4.72;3.92;;;19.90;98.70;;;;;;4985839;28;20181;-90
2021/07/06 08:49:35;;;;;;;5.47;3.83;;;19.70;99.80;;;;;;5001276;28;20216;-90
2021/07/06 08:52:03;;;;;;;5.23;3.60;;;19.70;99.90;;;;;;4996293;28;20714;-90
2021/07/06 08:54:30;;;;;;;3.95;3.60;;;19.60;99.90;;;;;;5001307;28;20186;-91
2021/07/06 08:56:56;;;;;;;4.05;3.40;;;19.50;99.90;;;;;;5008001;28;20550;-88
2021/07/06 08:59:21;;;;;;;4.18;3.30;;;19.50;99.90;;;;;;5001478;28;20745;-88
2021/07/06 09:01:47;;;;;;;3.63;3.20;;;19.40;99.90;;;;;;4998739;28;20200;-89
2021/07/06 09:04:13;;;;;;;4.70;3.30;;;19.40;99.90;;;;;;5003053;28;20686;-88
2021/07/06 09:06:57;;;;;;;3.33;3.00;;;19.30;99.90;;;;;;4999275;28;20192;-89
2021/07/06 09:09:28;;;;;;;3.07;2.60;;;19.20;99.90;;;;;;5000325;28;20211;-89
2021/07/06 09:11:56;;;;;;;5.30;3.07;;;19.20;99.90;;;;;;5007158;28;20211;-87
2021/07/06 09:14:27;;;;;;;5.40;3.23;;;19.20;99.90;;;;;;5012990;28;20175;-89
2021/07/06 09:17:10;;;;;;;5.00;3.17;;;19.10;99.90;;;;;;5017609;28;20187;-89
2021/07/06 09:19:36;;;;;;;3.67;3.27;;;19.20;99.90;;;;;;5001715;28;20668;-89
2021/07/06 09:22:09;;;;;;;7.60;3.20;;;19.20;99.90;;;;;;4996830;28;20192;-88
2021/07/06 09:24:35;;;;;;;3.30;3.00;;;19.20;99.90;;;;;;5012629;28;20200;-89
2021/07/06 09:27:30;;;;;;;9.57;2.85;;;19.20;99.90;;;;;;4994389;28;20685;-89
2021/07/06 09:30:18;;;;;;;2.67;2.45;;;19.40;99.90;;;;;;4999394;28;20240;-89
2021/07/06 09:32:49;;;;;;;3.58;2.92;;;19.40;99.90;;;;;;4996659;28;20260;-89
2021/07/06 09:35:19;;;;;;;4.40;2.60;;;19.40;99.90;;;;;;4996128;28;20616;-89
2021/07/06 09:38:02;;;;;;;5.70;3.10;;;19.40;99.90;;;;;;5005391;28;20711;-88
2021/07/06 09:40:36;;;;;;;4.55;3.17;;;19.60;99.90;;;;;;4998725;28;20287;-90
2021/07/06 09:43:20;;;;;;;3.67;3.10;;;19.50;99.90;;;;;;5001306;28;20189;-90
2021/07/06 09:46:06;;;;;;;3.17;2.88;;;19.60;99.90;;;;;;5005904;28;20181;-89
2021/07/06 09:48:35;;;;;;;5.05;3.10;;;19.50;99.90;;;;;;5011251;28;20180;-89
2021/07/06 09:51:16;;;;;;;3.50;2.78;;;19.60;99.90;;;;;;5005596;28;20219;-89
2021/07/06 09:53:45;;;;;;;2.75;2.50;;;19.40;99.70;;;;;;5005899;28;20694;-89
2021/07/06 09:56:12;;;;;;;3.17;2.88;;;19.30;99.80;;;;;;5001770;28;20181;-89
2021/07/06 09:59:03;;;;;;;3.03;2.83;;;19.30;99.90;;;;;;5002725;28;20177;-88
2021/07/06 10:01:29;;;;;;;3.42;3.13;;;19.40;99.90;;;;;;5010305;28;20184;-88
2021/07/06 10:03:56;;;;;;;4.10;3.00;;;19.40;99.90;;;;;;5012322;28;20651;-88
2021/07/06 10:06:24;;;;;;;3.42;3.13;;;19.40;99.90;;;;;;5009331;28;20228;-87
2021/07/06 10:08:51;;;;;;;3.45;3.15;;;19.40;99.90;;;;;;5007095;28;20186;-88
2021/07/06 10:11:18;;;;;;;3.75;3.33;;;19.50;99.90;;;;;;5008118;28;20255;-87
2021/07/06 10:13:44;;;;;;;2.47;2.28;;;19.50;99.90;;;;;;5010727;28;20178;-88
2021/07/06 10:16:13;;;;;;;4.28;2.70;;;19.40;99.90;;;;;;5002369;28;20650;-88
2021/07/06 10:18:39;;;;;;;2.70;2.50;;;19.40;99.90;;;;;;5008245;28;20185;-88
2021/07/06 10:21:05;;;;;;;2.50;2.33;;;19.40;99.90;;;;;;4991395;28;20291;-88
2021/07/06 10:23:35;;;;;;;2.63;2.22;;;19.40;99.90;;;;;;5014122;28;20190;-88
2021/07/06 10:26:03;;;;;;;2.85;2.55;;;19.40;99.90;;;;;;4994212;28;20269;-88
2021/07/06 10:28:31;;;;;;;2.97;2.30;;;19.50;99.90;;;;;;5008462;28;20182;-88
2021/07/06 10:31:14;;;;;;;2.28;2.15;;;19.50;99.90;;;;;;5002880;28;20213;-88
2021/07/06 10:33:41;;;;;;;2.25;2.15;;;19.40;99.70;;;;;;5008982;28;20724;-88
2021/07/06 10:36:07;;;;;;;2.28;2.08;;;19.60;97.20;;;;;;4993191;28;20185;-87
2021/07/06 10:38:33;;;;;;;2.17;1.98;;;19.70;97.80;;;;;;5014632;28;20182;-87
2021/07/06 10:41:21;;;;;;;2.22;2.13;;;19.60;97.30;;;;;;5015023;28;20210;-87
2021/07/06 10:43:46;;;;;;;3.63;2.30;;;19.60;99.10;;;;;;5015894;28;20172;-87
2021/07/06 10:46:21;;;;;;;2.22;2.10;;;19.70;97.90;;;;;;5011022;28;20692;-89
2021/07/06 10:48:57;;;;;;;2.28;2.08;;;19.80;98.20;;;;;;5016836;28;20219;-88
2021/07/06 10:51:37;;;;;;;2.00;1.90;;;19.80;97.30;;;;;;4994135;28;20227;-89
2021/07/06 10:54:04;;;;;;;2.38;1.85;;;19.90;97.00;;;;;;5001410;28;20266;-88
2021/07/06 10:56:35;;;;;;;2.22;1.88;;;20.00;95.70;;;;;;5002732;28;20209;-88
2021/07/06 10:59:07;;;;;;;2.20;2.00;;;20.20;96.80;;;;;;4989547;28;20684;-89
2021/07/06 11:01:47;;;;;;;2.55;2.05;;;20.30;95.30;;;;;;4982494;28;20206;-89
2021/07/06 11:04:46;;;;;;;1.98;1.88;;;20.50;95.60;;;;;;5005497;28;20653;-88
2021/07/06 11:07:29;;;;;;;2.88;2.10;;;20.50;95.70;;;;;;5003813;28;20181;-89
2021/07/06 11:09:55;;;;;;;2.83;1.92;;;20.50;95.80;;;;;;4998991;28;20385;-89
2021/07/06 11:12:31;;;;;;;2.28;2.08;;;20.50;92.90;;;;;;5001914;28;20824;-88
2021/07/06 11:15:12;;;;;;;2.05;1.95;;;20.40;92.40;;;;;;5000240;28;20283;-90
2021/07/06 11:17:42;;;;;;;2.58;2.03;;;20.40;92.90;;;;;;4994985;28;20181;-87
2021/07/06 11:20:26;;;;;;;1.90;1.80;;;20.20;93.90;;;;;;4995921;28;20266;-89
2021/07/06 11:22:57;;;;;;;2.63;2.20;;;20.10;94.60;;;;;;4970693;28;20200;-88
2021/07/06 11:25:38;;;;;;;2.10;2.00;;;20.00;95.70;;;;;;5010308;28;20564;-88
2021/07/06 11:28:05;;;;;;;2.28;2.08;;;19.80;95.10;;;;;;4993974;28;20809;-90
2021/07/06 11:30:35;;;;;;;2.00;1.90;;;19.70;98.40;;;;;;4989890;28;20218;-89
2021/07/06 11:33:25;;;;;;;2.42;2.22;;;19.60;97.80;;;;;;4994888;28;20193;-87
2021/07/06 11:35:53;;;;;;;2.10;2.00;;;19.60;98.70;;;;;;5006027;28;20186;-89
2021/07/06 11:38:29;;;;;;;2.65;2.00;;;19.60;98.60;;;;;;5006062;28;20190;-89
2021/07/06 11:41:00;;;;;;;2.30;2.10;;;19.60;98.70;;;;;;4997182;28;20297;-88
2021/07/06 11:43:28;;;;;;;2.10;1.90;;;19.60;99.10;;;;;;4997415;28;20193;-89
2021/07/06 11:46:09;;;;;;;2.30;2.10;;;19.50;98.80;;;;;;4978190;28;20213;-90
2021/07/06 11:48:38;;;;;;;4.60;2.50;;;19.50;99.60;;;;;;4997057;28;20204;-90
2021/07/06 11:51:10;;;;;;;2.25;2.00;;;19.40;99.90;;;;;;5001076;28;20217;-88
2021/07/06 11:53:38;;;;;;;3.80;2.28;;;19.50;99.60;;;;;;4959067;28;20687;-89
2021/07/06 11:56:09;;;;;;;2.55;2.13;;;19.50;98.60;;;;;;5000961;28;20376;-88
2021/07/06 11:58:36;;;;;;;2.83;2.45;;;19.40;98.40;;;;;;5006649;28;20177;-89
2021/07/06 12:01:10;;;;;;;2.47;2.28;;;19.40;99.60;;;;;;5014211;28;20205;-89
2021/07/06 12:03:37;;;;;;;2.75;2.25;;;19.30;99.50;;;;;;5001440;28;20184;-89
2021/07/06 12:06:12;;;;;;;3.38;2.15;;;19.20;99.70;;;;;;5009435;28;20260;-89
2021/07/06 12:08:43;;;;;;;3.97;2.30;;;19.10;99.90;;;;;;4985735;28;20196;-89
2021/07/06 12:11:15;;;;;;;2.67;1.95;;;19.10;99.90;;;;;;4995459;28;20295;-88
2021/07/06 12:13:41;;;;;;;2.38;1.95;;;18.90;99.90;;;;;;5011662;28;20207;-87
2021/07/06 12:16:10;;;;;;;2.00;1.90;;;18.90;99.90;;;;;;5030504;28;20414;-88
2021/07/06 12:18:46;;;;;;;2.30;2.10;;;18.90;99.90;;;;;;5002502;28;20751;-88
2021/07/06 12:21:12;;;;;;;3.20;2.20;;;18.90;99.90;;;;;;5013035;28;20232;-89
2021/07/06 12:23:47;;;;;;;2.55;2.30;;;19.00;99.90;;;;;;4994949;28;20226;-89
2021/07/06 12:26:14;;;;;;;2.70;2.03;;;19.00;99.90;;;;;;4999452;28;20863;-89
2021/07/06 12:28:41;;;;;;;2.47;2.25;;;19.00;99.50;;;;;;4981924;28;20193;-89
2021/07/06 12:31:25;;;;;;;2.67;1.97;;;19.00;99.90;;;;;;5008869;28;20261;-89
2021/07/06 12:34:06;;;;;;;2.80;1.90;;;18.90;99.90;;;;;;5002784;28;20267;-89
2021/07/06 12:36:36;;;;;;;4.00;2.05;;;18.90;99.90;;;;;;5003974;28;20187;-88
2021/07/06 12:39:23;;;;;;;2.33;1.90;;;19.00;99.90;;;;;;5002004;28;20188;-89
2021/07/06 12:42:08;;;;;;;2.25;2.05;;;18.90;99.90;;;;;;4992999;28;20211;-88
2021/07/06 12:44:39;;;;;;;1.87;1.73;;;19.00;99.90;;;;;;5004641;28;20632;-88
2021/07/06 12:47:30;;;;;;;2.80;1.80;;;19.00;99.60;;;;;;4996978;28;20210;-88
2021/07/06 12:50:03;;;;;;;2.38;2.08;;;19.10;99.90;;;;;;4987876;28;20314;-88
2021/07/06 12:52:43;;;;;;;2.13;1.85;;;19.20;99.90;;;;;;5004302;28;20226;-88
2021/07/06 12:55:11;;;;;;;3.13;2.38;;;19.30;99.70;;;;;;5008575;28;20219;-88